Time,TemperatureF,DewpointF,PressureIn,WindDirection,WindDirectionDegrees,WindSpeedMPH,WindSpeedGustMPH,Humidity,HourlyPrecipIn,Conditions,Clouds,dailyrainin,SoftwareType,DateUTC
2013-12-22 00:08:00,43.0,34.6,29.29,SSW,203,32.0,44.0,72,0.00,,,0.00,WeatherDisplay:10.37,2013-12-22 00:08:00,
2013-12-22 00:18:00,43.0,35.2,29.27,South,189,29.0,41.0,74,0.00,,,0.00,WeatherDisplay:10.37,2013-12-22 00:18:00,
2013-12-22 00:28:00,42.6,35.5,29.26,South,186,25.0,37.0,76,0.00,CLR,CLR,0.00,WeatherDisplay:10.37,2013-12-22 00:28:00,
2013-12-22 00:38:00,41.9,35.5,29.26,South,184,31.0,38.0,78,0.00,,,0.00,WeatherDisplay:10.37,2013-12-22 00:38:00,
2013-12-22 00:48:00,42.1,36.0,29.26,South,174,33.0,39.0,79,0.00,,,0.00,WeatherDisplay:10.37,2013-12-22 00:48:00,
2013-12-22 00:58:00,42.4,36.7,29.27,SSW,192,35.0,45.0,80,0.00,,,0.00,WeatherDisplay:10.37,2013-12-22 00:58:00,
2013-12-22 01:08:00,39.6,34.6,29.30,WNW,286,25.0,41.0,82,0.01,RA,RA,0.01,WeatherDisplay:10.37,2013-12-22 01:08:00,
2013-12-22 01:18:00,41.0,35.9,29.28,WNW,282,24.0,40.0,82,0.01,RA,RA,0.02,WeatherDisplay:10.37,2013-12-22 01:18:00,
2013-12-22 01:28:00,41.6,35.0,29.27,WSW,249,22.0,37.0,77,0.00,CLR,CLR,0.02,WeatherDisplay:10.37,2013-12-22 01:28:00,
2013-12-22 01:38:00,43.2,36.1,29.27,SW,234,30.0,42.0,76,0.00,,,0.02,WeatherDisplay:10.37,2013-12-22 01:38:00,
2013-12-22 01:48:00,43.0,36.3,29.27,SW,218,28.0,37.0,77,0.00,CLR,CLR,0.02,WeatherDisplay:10.37,2013-12-22 01:48:00,
2013-12-22 01:58:00,42.8,35.8,29.26,SSW,201,26.0,33.0,76,0.00,CLR,CLR,0.02,WeatherDisplay:10.37,2013-12-22 01:58:00,
2013-12-22 02:08:00,45.5,35.5,29.25,SW,230,44.0,53.0,68,0.00,,,0.02,WeatherDisplay:10.37,2013-12-22 02:08:00,
2013-12-22 02:18:00,43.2,34.4,29.27,WNW,297,31.0,56.0,71,0.50,RA,RA,0.52,WeatherDisplay:10.37,2013-12-22 02:18:00,
2013-12-22 02:28:00,44.2,33.2,29.26,West,271,30.0,49.0,65,0.11,RA,RA,0.63,WeatherDisplay:10.37,2013-12-22 02:28:00,
2013-12-22 02:38:00,44.8,33.8,29.27,WSW,253,35.0,41.0,65,0.07,RA,RA,0.70,WeatherDisplay:10.37,2013-12-22 02:38:00,
2013-12-22 02:48:00,45.5,34.4,29.27,West,269,25.0,43.0,65,0.05,RA,RA,0.74,WeatherDisplay:10.37,2013-12-22 02:48:00,
2013-12-22 02:58:00,45.0,31.9,29.27,WSW,238,26.0,42.0,60,0.00,,,0.74,WeatherDisplay:10.37,2013-12-22 02:58:00,
2013-12-22 03:08:00,45.0,34.7,29.27,West,265,26.0,39.0,67,0.00,CLR,CLR,0.74,WeatherDisplay:10.37,2013-12-22 03:08:00,
2013-12-22 03:18:00,45.0,32.7,29.27,West,278,24.0,37.0,62,0.01,RA,RA,0.76,WeatherDisplay:10.37,2013-12-22 03:18:00,
2013-12-22 03:28:00,45.1,33.3,29.27,West,262,31.0,37.0,63,0.01,RA,RA,0.77,WeatherDisplay:10.37,2013-12-22 03:28:00,
2013-12-22 03:38:00,45.2,32.5,29.27,WNW,299,26.0,41.0,61,0.01,RA,RA,0.78,WeatherDisplay:10.37,2013-12-22 03:38:00,
2013-12-22 03:48:00,44.2,32.4,29.28,WSW,258,26.0,49.0,63,0.29,RA,RA,1.08,WeatherDisplay:10.37,2013-12-22 03:48:00,
2013-12-22 03:58:00,43.7,31.9,29.28,WNW,290,24.0,43.0,63,0.06,RA,RA,1.13,WeatherDisplay:10.37,2013-12-22 03:58:00,
2013-12-22 04:08:00,44.6,33.2,29.28,WSW,246,29.0,37.0,64,0.11,RA,RA,1.24,WeatherDisplay:10.37,2013-12-22 04:08:00,
2013-12-22 04:18:00,45.3,33.0,29.27,West,275,26.0,39.0,62,0.12,RA,RA,1.36,WeatherDisplay:10.37,2013-12-22 04:18:00,
2013-12-22 04:28:00,41.4,31.6,29.30,WNW,290,32.0,53.0,68,1.08,RA,RA,2.43,WeatherDisplay:10.37,2013-12-22 04:28:00,
2013-12-22 04:38:00,40.2,33.5,29.31,WNW,291,25.0,54.0,77,0.81,RA,RA,3.25,WeatherDisplay:10.37,2013-12-22 04:38:00,
2013-12-22 04:48:00,41.0,33.0,29.30,WNW,292,26.0,43.0,73,0.02,RA,RA,3.27,WeatherDisplay:10.37,2013-12-22 04:48:00,
2013-12-22 04:58:00,42.3,33.5,29.29,WNW,298,22.0,35.0,71,0.01,RA,RA,3.28,WeatherDisplay:10.37,2013-12-22 04:58:00,
2013-12-22 05:08:00,43.5,34.0,29.28,West,275,31.0,49.0,69,0.00,,,3.28,WeatherDisplay:10.37,2013-12-22 05:08:00,
2013-12-22 05:18:00,44.1,33.4,29.28,WSW,237,37.0,49.0,66,0.01,RA,RA,3.30,WeatherDisplay:10.37,2013-12-22 05:18:00,
2013-12-22 05:28:00,44.2,32.8,29.29,SW,225,29.0,46.0,64,0.00,CLR,CLR,3.30,WeatherDisplay:10.37,2013-12-22 05:28:00,
2013-12-22 05:38:00,44.6,34.7,29.30,WSW,256,28.0,42.0,68,0.00,CLR,CLR,3.30,WeatherDisplay:10.37,2013-12-22 05:38:00,
2013-12-22 05:48:00,40.8,33.5,29.32,WNW,293,33.0,55.0,75,0.04,RA,RA,3.33,WeatherDisplay:10.37,2013-12-22 05:48:00,
2013-12-22 05:58:00,39.2,33.5,29.32,NW,305,23.0,40.0,80,0.01,RA,RA,3.34,WeatherDisplay:10.37,2013-12-22 05:58:00,
2013-12-22 06:08:00,39.4,33.4,29.31,WNW,286,20.0,26.0,79,0.00,CLR,CLR,3.34,WeatherDisplay:10.37,2013-12-22 06:08:00,
2013-12-22 06:18:00,40.4,34.1,29.31,WNW,289,17.0,26.0,78,0.00,CLR,CLR,3.34,WeatherDisplay:10.37,2013-12-22 06:18:00,
2013-12-22 06:28:00,41.9,34.9,29.31,WNW,288,22.0,33.0,76,0.00,CLR,CLR,3.34,WeatherDisplay:10.37,2013-12-22 06:28:00,
2013-12-22 06:38:00,42.8,34.8,29.32,West,269,21.0,36.0,73,0.00,CLR,CLR,3.34,WeatherDisplay:10.37,2013-12-22 06:38:00,
2013-12-22 06:48:00,43.3,34.9,29.31,West,264,22.0,30.0,72,0.00,CLR,CLR,3.34,WeatherDisplay:10.37,2013-12-22 06:48:00,
2013-12-22 06:58:00,43.9,34.4,29.32,WNW,295,22.0,34.0,69,0.00,CLR,CLR,3.34,WeatherDisplay:10.37,2013-12-22 06:58:00,
2013-12-22 07:08:00,44.2,33.6,29.32,WNW,290,21.0,34.0,66,0.00,CLR,CLR,3.34,WeatherDisplay:10.37,2013-12-22 07:08:00,
2013-12-22 07:18:00,43.8,33.2,29.32,WSW,243,26.0,39.0,66,0.00,CLR,CLR,3.34,WeatherDisplay:10.37,2013-12-22 07:18:00,
2013-12-22 07:28:00,43.9,32.5,29.31,West,278,20.0,35.0,64,0.00,CLR,CLR,3.34,WeatherDisplay:10.37,2013-12-22 07:28:00,
2013-12-22 07:38:00,41.1,32.5,29.34,West,269,40.0,55.0,71,0.35,RA,RA,3.70,WeatherDisplay:10.37,2013-12-22 07:38:00,
2013-12-22 07:48:00,37.6,33.2,29.35,NW,308,20.0,51.0,84,0.17,RA,RA,3.86,WeatherDisplay:10.37,2013-12-22 07:48:00,
2013-12-22 07:58:00,38.1,33.4,29.34,West,261,13.0,26.0,83,0.00,CLR,CLR,3.86,WeatherDisplay:10.37,2013-12-22 07:58:00,
2013-12-22 08:08:00,39.7,34.3,29.34,WNW,299,17.0,23.0,81,0.00,CLR,CLR,3.86,WeatherDisplay:10.37,2013-12-22 08:08:00,
2013-12-22 08:18:00,41.4,34.7,29.33,NW,315,17.0,27.0,77,0.00,CLR,CLR,3.86,WeatherDisplay:10.37,2013-12-22 08:18:00,
2013-12-22 08:28:00,42.1,34.7,29.34,West,273,29.0,36.0,75,0.00,CLR,CLR,3.86,WeatherDisplay:10.37,2013-12-22 08:28:00,
2013-12-22 08:38:00,40.7,34.7,29.35,West,266,15.0,34.0,79,0.00,CLR,CLR,3.86,WeatherDisplay:10.37,2013-12-22 08:38:00,
2013-12-22 08:48:00,39.5,32.9,29.34,WNW,293,14.0,25.0,77,0.00,CLR,CLR,3.86,WeatherDisplay:10.37,2013-12-22 08:48:00,
2013-12-22 08:58:00,39.2,33.5,29.35,West,271,22.0,32.0,80,0.01,RA,RA,3.87,WeatherDisplay:10.37,2013-12-22 08:58:00,
2013-12-22 09:08:00,40.6,34.3,29.35,West,281,12.0,32.0,78,0.00,CLR,CLR,3.87,WeatherDisplay:10.37,2013-12-22 09:08:00,
2013-12-22 09:18:00,40.9,34.3,29.35,West,281,18.0,29.0,77,0.01,RA,RA,3.89,WeatherDisplay:10.37,2013-12-22 09:18:00,
2013-12-22 09:28:00,42.1,34.4,29.35,West,280,21.0,32.0,74,0.00,,,3.89,WeatherDisplay:10.37,2013-12-22 09:28:00,
2013-12-22 09:38:00,42.1,34.4,29.38,North,349,21.0,29.0,74,0.00,CLR,CLR,3.89,WeatherDisplay:10.37,2013-12-22 09:38:00,
2013-12-22 09:48:00,39.0,33.4,29.39,NW,307,15.0,40.0,80,0.01,RA,RA,3.90,WeatherDisplay:10.37,2013-12-22 09:48:00,
2013-12-22 09:58:00,39.4,33.4,29.39,West,266,9.0,23.0,79,0.00,CLR,CLR,3.90,WeatherDisplay:10.37,2013-12-22 09:58:00,
2013-12-22 10:08:00,39.7,34.1,29.39,West,277,12.0,18.0,80,0.00,CLR,CLR,3.90,WeatherDisplay:10.37,2013-12-22 10:08:00,
2013-12-22 10:18:00,40.3,34.0,29.39,West,268,14.0,21.0,78,0.00,CLR,CLR,3.90,WeatherDisplay:10.37,2013-12-22 10:18:00,
2013-12-22 10:28:00,40.3,34.0,29.39,WNW,295,10.0,18.0,78,0.00,CLR,CLR,3.90,WeatherDisplay:10.37,2013-12-22 10:28:00,
2013-12-22 10:38:00,40.6,34.3,29.40,West,271,17.0,21.0,78,0.00,CLR,CLR,3.90,WeatherDisplay:10.37,2013-12-22 10:38:00,
2013-12-22 10:48:00,41.7,31.2,29.39,WNW,288,28.0,47.0,66,0.15,RA,RA,4.05,WeatherDisplay:10.37,2013-12-22 10:48:00,
2013-12-22 10:58:00,43.0,28.3,29.39,West,267,29.0,42.0,56,0.01,RA,RA,4.06,WeatherDisplay:10.37,2013-12-22 10:58:00,
2013-12-22 11:08:00,43.8,31.2,29.40,West,274,28.0,44.0,61,0.00,,,4.06,WeatherDisplay:10.37,2013-12-22 11:08:00,
2013-12-22 11:18:00,44.3,32.5,29.40,West,277,28.0,40.0,63,0.31,RA,RA,4.37,WeatherDisplay:10.37,2013-12-22 11:18:00,
2013-12-22 11:28:00,43.4,31.2,29.41,West,261,26.0,40.0,62,0.12,RA,RA,4.49,WeatherDisplay:10.37,2013-12-22 11:28:00,
2013-12-22 11:38:00,44.0,32.2,29.40,West,277,22.0,37.0,63,0.02,RA,RA,4.51,WeatherDisplay:10.37,2013-12-22 11:38:00,
2013-12-22 11:48:00,45.8,33.1,29.41,West,280,25.0,37.0,61,0.00,,,4.51,WeatherDisplay:10.37,2013-12-22 11:48:00,
2013-12-22 11:58:00,45.0,32.3,29.41,WSW,251,26.0,41.0,61,0.05,RA,RA,4.56,WeatherDisplay:10.37,2013-12-22 11:58:00,
2013-12-22 12:08:00,45.5,33.2,29.42,WNW,286,25.0,39.0,62,0.01,RA,RA,4.57,WeatherDisplay:10.37,2013-12-22 12:08:00,
2013-12-22 12:18:00,44.9,32.7,29.42,West,259,36.0,45.0,62,0.13,RA,RA,4.70,WeatherDisplay:10.37,2013-12-22 12:18:00,
2013-12-22 12:28:00,43.2,31.8,29.42,WSW,253,26.0,45.0,64,0.07,RA,RA,4.77,WeatherDisplay:10.37,2013-12-22 12:28:00,
2013-12-22 12:38:00,44.1,32.7,29.41,West,265,17.0,39.0,64,0.00,,,4.77,WeatherDisplay:10.37,2013-12-22 12:38:00,
2013-12-22 12:48:00,44.4,33.0,29.42,WSW,249,36.0,45.0,64,0.20,RA,RA,4.97,WeatherDisplay:10.37,2013-12-22 12:48:00,
2013-12-22 12:58:00,38.0,32.4,29.42,NW,313,21.0,51.0,80,0.51,RA,RA,5.48,WeatherDisplay:10.37,2013-12-22 12:58:00,
2013-12-22 13:08:00,39.2,33.2,29.42,NW,312,17.0,31.0,79,0.00,CLR,CLR,5.48,WeatherDisplay:10.37,2013-12-22 13:08:00,
2013-12-22 13:18:00,38.8,33.2,29.43,WNW,284,15.0,26.0,80,0.00,CLR,CLR,5.48,WeatherDisplay:10.37,2013-12-22 13:18:00,
2013-12-22 13:28:00,39.2,32.9,29.44,West,276,13.0,21.0,78,0.00,CLR,CLR,5.48,WeatherDisplay:10.37,2013-12-22 13:28:00,
2013-12-22 13:38:00,39.4,32.8,29.44,West,270,12.0,17.0,77,0.00,CLR,CLR,5.48,WeatherDisplay:10.37,2013-12-22 13:38:00,
2013-12-22 13:48:00,39.4,32.8,29.44,North,355,12.0,16.0,77,0.00,CLR,CLR,5.48,WeatherDisplay:10.37,2013-12-22 13:48:00,
2013-12-22 13:58:00,39.4,32.8,29.43,North,0,12.0,16.0,77,0.00,CLR,CLR,5.48,WeatherDisplay:10.37,2013-12-22 13:58:00,
2013-12-22 14:08:00,44.1,29.4,29.44,NW,317,23.0,30.0,56,0.00,CLR,CLR,5.48,WeatherDisplay:10.37,2013-12-22 14:08:00,
2013-12-22 14:18:00,44.1,28.5,29.44,West,276,21.0,32.0,54,0.00,CLR,CLR,5.48,WeatherDisplay:10.37,2013-12-22 14:18:00,
2013-12-22 14:28:00,42.9,30.7,29.45,West,275,30.0,45.0,62,0.04,RA,RA,5.52,WeatherDisplay:10.37,2013-12-22 14:28:00,
2013-12-22 14:38:00,42.8,29.5,29.45,West,278,25.0,38.0,59,0.00,,,5.52,WeatherDisplay:10.37,2013-12-22 14:38:00,
2013-12-22 14:48:00,40.6,30.8,29.47,West,276,29.0,40.0,68,0.00,,,5.52,WeatherDisplay:10.37,2013-12-22 14:48:00,
2013-12-22 14:58:00,39.7,33.0,29.47,WNW,290,16.0,34.0,77,0.01,RA,RA,5.53,WeatherDisplay:10.37,2013-12-22 14:58:00,
2013-12-22 15:08:00,40.4,33.7,29.46,West,279,14.0,23.0,77,0.00,CLR,CLR,5.53,WeatherDisplay:10.37,2013-12-22 15:08:00,
2013-12-22 15:18:00,41.0,33.3,29.47,NW,304,13.0,21.0,74,0.00,CLR,CLR,5.53,WeatherDisplay:10.37,2013-12-22 15:18:00,
2013-12-22 15:28:00,38.2,31.9,29.48,NW,307,15.0,30.0,78,0.00,CLR,CLR,5.53,WeatherDisplay:10.37,2013-12-22 15:28:00,
2013-12-22 15:38:00,37.9,32.9,29.48,WNW,299,12.0,25.0,82,0.00,CLR,CLR,5.53,WeatherDisplay:10.37,2013-12-22 15:38:00,
2013-12-22 15:48:00,38.3,33.0,29.48,WNW,287,8.0,16.0,81,0.00,CLR,CLR,5.53,WeatherDisplay:10.37,2013-12-22 15:48:00,
2013-12-22 15:58:00,39.1,33.4,29.48,West,270,7.0,13.0,80,0.00,CLR,CLR,5.53,WeatherDisplay:10.37,2013-12-22 15:58:00,
2013-12-22 16:08:00,39.7,33.4,29.48,WNW,289,8.0,16.0,78,0.00,CLR,CLR,5.53,WeatherDisplay:10.37,2013-12-22 16:08:00,
2013-12-22 16:18:00,40.5,33.8,29.47,SW,231,16.0,21.0,77,0.01,RA,RA,5.54,WeatherDisplay:10.37,2013-12-22 16:18:00,
2013-12-22 16:28:00,43.0,34.6,29.47,WSW,251,25.0,38.0,72,0.00,,,5.54,WeatherDisplay:10.37,2013-12-22 16:28:00,
2013-12-22 16:38:00,42.1,33.0,29.47,SW,224,28.0,39.0,70,0.00,,,5.54,WeatherDisplay:10.37,2013-12-22 16:38:00,
2013-12-22 16:48:00,42.3,33.9,29.47,WSW,246,26.0,35.0,72,0.00,CLR,CLR,5.54,WeatherDisplay:10.37,2013-12-22 16:48:00,
2013-12-22 16:58:00,42.7,34.0,29.47,SW,225,26.0,31.0,71,0.00,CLR,CLR,5.54,WeatherDisplay:10.37,2013-12-22 16:58:00,
2013-12-22 17:08:00,43.0,33.6,29.47,WSW,243,9.0,30.0,69,0.00,CLR,CLR,5.54,WeatherDisplay:10.37,2013-12-22 17:08:00,
2013-12-22 17:18:00,43.0,34.6,29.47,SW,223,22.0,25.0,72,0.00,CLR,CLR,5.54,WeatherDisplay:10.37,2013-12-22 17:18:00,
2013-12-22 17:28:00,41.7,31.2,29.48,SW,226,20.0,49.0,66,0.00,CLR,CLR,5.54,WeatherDisplay:10.37,2013-12-22 17:28:00,
2013-12-22 17:38:00,41.2,34.2,29.48,WNW,284,25.0,34.0,76,0.01,RA,RA,5.55,WeatherDisplay:10.37,2013-12-22 17:38:00,
2013-12-22 17:48:00,40.8,34.2,29.47,SSW,196,15.0,30.0,77,0.00,CLR,CLR,5.55,WeatherDisplay:10.37,2013-12-22 17:48:00,
2013-12-22 17:58:00,39.7,33.4,29.47,South,183,14.0,20.0,78,0.00,CLR,CLR,5.55,WeatherDisplay:10.37,2013-12-22 17:58:00,
2013-12-22 18:08:00,39.6,33.6,29.47,South,187,13.0,20.0,79,0.00,CLR,CLR,5.55,WeatherDisplay:10.37,2013-12-22 18:08:00,
2013-12-22 18:18:00,41.4,35.3,29.47,SSW,211,35.0,42.0,79,0.00,,,5.55,WeatherDisplay:10.37,2013-12-22 18:18:00,
2013-12-22 18:28:00,42.6,33.9,29.47,SW,217,25.0,46.0,71,0.01,RA,RA,5.56,WeatherDisplay:10.37,2013-12-22 18:28:00,
2013-12-22 18:38:00,43.2,32.9,29.47,WSW,247,28.0,36.0,67,0.00,,,5.56,WeatherDisplay:10.37,2013-12-22 18:38:00,
2013-12-22 18:48:00,43.3,33.5,29.46,SSW,210,25.0,40.0,68,0.00,CLR,CLR,5.56,WeatherDisplay:10.37,2013-12-22 18:48:00,
2013-12-22 18:58:00,42.8,34.4,29.47,SW,220,26.0,37.0,72,0.00,,,5.56,WeatherDisplay:10.37,2013-12-22 18:58:00,
2013-12-22 19:08:00,42.8,34.4,29.47,SW,227,25.0,35.0,72,0.00,CLR,CLR,5.56,WeatherDisplay:10.37,2013-12-22 19:08:00,
2013-12-22 19:18:00,42.1,34.7,29.46,WSW,240,16.0,29.0,75,0.00,CLR,CLR,5.56,WeatherDisplay:10.37,2013-12-22 19:18:00,
2013-12-22 19:28:00,41.9,34.9,29.46,SSW,203,23.0,28.0,76,0.00,CLR,CLR,5.56,WeatherDisplay:10.37,2013-12-22 19:28:00,
2013-12-22 19:38:00,43.7,35.6,29.47,SW,221,29.0,39.0,73,0.00,,,5.56,WeatherDisplay:10.37,2013-12-22 19:38:00,
2013-12-22 19:48:00,38.8,32.6,29.48,NW,306,24.0,37.0,78,0.00,CLR,CLR,5.56,WeatherDisplay:10.37,2013-12-22 19:48:00,
2013-12-22 19:58:00,38.2,34.0,29.47,WNW,288,16.0,30.0,85,0.01,RA,RA,5.57,WeatherDisplay:10.37,2013-12-22 19:58:00,
2013-12-22 20:08:00,40.1,36.0,29.47,WSW,251,24.0,32.0,85,0.00,CLR,CLR,5.57,WeatherDisplay:10.37,2013-12-22 20:08:00,
2013-12-22 20:18:00,41.6,35.9,29.47,WSW,243,16.0,33.0,80,0.00,CLR,CLR,5.57,WeatherDisplay:10.37,2013-12-22 20:18:00,
2013-12-22 20:28:00,42.7,35.3,29.47,WSW,254,21.0,30.0,75,0.00,CLR,CLR,5.57,WeatherDisplay:10.37,2013-12-22 20:28:00,
2013-12-22 20:38:00,43.3,34.9,29.47,West,263,23.0,30.0,72,0.00,CLR,CLR,5.57,WeatherDisplay:10.37,2013-12-22 20:38:00,
2013-12-22 20:48:00,41.6,34.0,29.47,WNW,289,23.0,39.0,74,0.01,RA,RA,5.59,WeatherDisplay:10.37,2013-12-22 20:48:00,
2013-12-22 20:58:00,41.9,34.2,29.47,West,271,22.0,34.0,74,0.00,CLR,CLR,5.59,WeatherDisplay:10.37,2013-12-22 20:58:00,
2013-12-22 21:08:00,42.3,34.2,29.47,West,267,30.0,37.0,73,0.00,,,5.59,WeatherDisplay:10.37,2013-12-22 21:08:00,
2013-12-22 21:18:00,40.7,34.7,29.46,WSW,248,29.0,37.0,79,0.01,RA,RA,5.60,WeatherDisplay:10.37,2013-12-22 21:18:00,
2013-12-22 21:28:00,41.7,34.7,29.45,SSW,198,24.0,35.0,76,0.00,CLR,CLR,5.60,WeatherDisplay:10.37,2013-12-22 21:28:00,
2013-12-22 21:38:00,41.7,34.7,29.45,NNE,18,24.0,32.0,76,0.00,CLR,CLR,5.60,WeatherDisplay:10.37,2013-12-22 21:38:00,
2013-12-22 21:48:00,41.7,34.7,29.45,North,0,24.0,32.0,76,0.00,CLR,CLR,5.60,WeatherDisplay:10.37,2013-12-22 21:48:00,
2013-12-22 21:58:00,43.2,33.7,29.44,WNW,293,23.0,32.0,69,0.00,CLR,CLR,5.60,WeatherDisplay:10.37,2013-12-22 21:58:00,
2013-12-22 22:08:00,42.5,34.8,29.44,SSW,207,20.0,29.0,74,0.00,CLR,CLR,5.60,WeatherDisplay:10.37,2013-12-22 22:08:00,
2013-12-22 22:18:00,44.1,33.9,29.44,SW,222,24.0,33.0,67,0.00,CLR,CLR,5.60,WeatherDisplay:10.37,2013-12-22 22:18:00,
2013-12-22 22:28:00,42.6,34.6,29.44,SSW,213,17.0,31.0,73,0.00,CLR,CLR,5.60,WeatherDisplay:10.37,2013-12-22 22:28:00,
2013-12-22 22:38:00,42.8,34.4,29.44,SW,214,25.0,34.0,72,0.00,CLR,CLR,5.60,WeatherDisplay:10.37,2013-12-22 22:38:00,
2013-12-22 22:48:00,42.1,34.4,29.43,SSW,196,29.0,36.0,74,0.00,,,5.60,WeatherDisplay:10.37,2013-12-22 22:48:00,
2013-12-22 22:58:00,42.1,35.1,29.43,SSW,193,23.0,33.0,76,0.00,CLR,CLR,5.60,WeatherDisplay:10.37,2013-12-22 22:58:00,
2013-12-22 23:08:00,42.1,35.1,29.43,SSW,193,28.0,33.0,76,0.00,CLR,CLR,5.60,WeatherDisplay:10.37,2013-12-22 23:08:00,
2013-12-22 23:18:00,42.3,35.6,29.43,SW,224,23.0,31.0,77,0.00,CLR,CLR,5.60,WeatherDisplay:10.37,2013-12-22 23:18:00,
2013-12-22 23:28:00,42.6,35.9,29.43,SW,222,20.0,28.0,77,0.00,CLR,CLR,5.60,WeatherDisplay:10.37,2013-12-22 23:28:00,
2013-12-22 23:38:00,42.6,36.3,29.43,SSW,212,18.0,26.0,78,0.00,CLR,CLR,5.60,WeatherDisplay:10.37,2013-12-22 23:38:00,
2013-12-22 23:48:00,42.3,35.9,29.42,SSW,203,23.0,29.0,78,0.00,CLR,CLR,5.60,WeatherDisplay:10.37,2013-12-22 23:48:00,
2013-12-22 23:58:00,42.1,35.7,29.42,SSW,199,17.0,26.0,78,0.00,RA,RA,0.00,WeatherDisplay:10.37,2013-12-22 23:58:00,